createdAt,value
2016-11-26T00:00:23.913Z,87.54
2016-11-26T00:00:51.477Z,87.7
2016-11-26T00:01:19.324Z,87.7
2016-11-26T00:01:47.583Z,87.7
2016-11-26T00:02:15.430Z,88.37
2016-11-26T00:02:43.364Z,88.08
2016-11-26T00:03:11.197Z,88.37
2016-11-26T00:03:38.780Z,88.17
2016-11-26T00:04:06.536Z,88.37
2016-11-26T00:04:34.158Z,88.37
2016-11-26T00:05:02.084Z,88.56
2016-11-26T00:05:29.750Z,88.65
2016-11-26T00:05:57.656Z,88.46
2016-11-26T00:06:25.913Z,87.88
2016-11-26T00:06:53.502Z,87.54
2016-11-26T00:07:21.508Z,87.21
2016-11-26T00:07:49.102Z,86.92
2016-11-26T00:08:17.000Z,87.3
2016-11-26T00:08:44.915Z,87.3
2016-11-26T00:09:12.587Z,87.3
2016-11-26T00:09:40.408Z,87.12
2016-11-26T00:10:08.006Z,87.12
2016-11-26T00:10:36.174Z,87.21
2016-11-26T00:11:03.760Z,87.12
2016-11-26T00:11:31.365Z,87.02
2016-11-26T00:11:59.077Z,86.63
2016-11-26T00:12:26.714Z,86.54
2016-11-26T00:12:54.345Z,86.54
2016-11-26T00:13:21.970Z,86.54
2016-11-26T00:13:49.852Z,86.54
2016-11-26T00:14:17.575Z,86.63
2016-11-26T00:14:45.196Z,86.63
2016-11-26T00:15:13.125Z,86.73
2016-11-26T00:15:41.066Z,86.25
2016-11-26T00:16:08.929Z,86.44
2016-11-26T00:16:36.504Z,85.91
2016-11-26T00:17:04.325Z,86.25
2016-11-26T00:17:31.961Z,86.29
2016-11-26T00:17:59.600Z,86.19
2016-11-26T00:18:27.187Z,85.71
2016-11-26T00:18:55.324Z,85.81
2016-11-26T00:19:22.945Z,85.33
2016-11-26T00:19:50.541Z,85.71
2016-11-26T00:20:18.444Z,85.23
2016-11-26T00:20:46.332Z,85.71
2016-11-26T00:21:13.979Z,85.71
2016-11-26T00:21:41.605Z,85.42
2016-11-26T00:22:09.260Z,85.23
2016-11-26T00:22:36.884Z,85.61
2016-11-26T00:23:04.543Z,85.61
2016-11-26T00:23:32.470Z,85.42
2016-11-26T00:24:00.086Z,85.52
2016-11-26T00:24:28.029Z,85.71
2016-11-26T00:24:55.939Z,85.81
2016-11-26T00:25:23.613Z,85.33
2016-11-26T00:25:51.485Z,84.65
2016-11-26T00:26:19.160Z,85.13
2016-11-26T00:26:46.826Z,85.33
2016-11-26T00:27:14.572Z,85.52
2016-11-26T00:27:42.189Z,85.33
2016-11-26T00:28:10.111Z,85.61
2016-11-26T00:28:37.766Z,85.13
2016-11-26T00:29:06.006Z,85.52
2016-11-26T00:29:33.651Z,85.52
2016-11-26T00:30:01.594Z,85.13
2016-11-26T00:30:29.214Z,85.23
2016-11-26T00:30:57.111Z,85.61
2016-11-26T00:31:25.035Z,85.42
2016-11-26T00:31:52.877Z,85.23
2016-11-26T00:32:20.472Z,85.52
2016-11-26T00:32:48.370Z,85.71
2016-11-26T00:33:15.939Z,85.61
2016-11-26T00:33:43.497Z,85.52
2016-11-26T00:34:11.432Z,84.84
2016-11-26T00:34:39.323Z,84.84
2016-11-26T00:35:06.986Z,85.13
2016-11-26T00:35:34.611Z,84.75
2016-11-26T00:36:02.505Z,84.75
2016-11-26T00:36:30.078Z,84.84
2016-11-26T00:36:58.285Z,85.13
2016-11-26T00:37:25.945Z,85.13
2016-11-26T00:37:53.595Z,84.84
2016-11-26T00:38:21.472Z,84.84
2016-11-26T00:38:49.402Z,84.65
2016-11-26T00:39:17.300Z,84.84
2016-11-26T00:39:44.881Z,84.65
2016-11-26T00:40:13.633Z,85.71
2016-11-26T00:40:41.264Z,85.52
2016-11-26T00:41:08.951Z,85.81
2016-11-26T00:41:37.075Z,85.13
2016-11-26T00:42:05.007Z,84.75
2016-11-26T00:42:32.628Z,85.33
2016-11-26T00:43:00.598Z,84.94
2016-11-26T00:43:28.232Z,85.61
2016-11-26T00:43:55.841Z,85.81
2016-11-26T00:44:23.482Z,85.33
2016-11-26T00:44:51.043Z,85.42
2016-11-26T00:45:18.952Z,85.28
2016-11-26T00:45:46.871Z,85.52
2016-11-26T00:46:14.771Z,85.23
2016-11-26T00:46:42.321Z,85.42
2016-11-26T00:47:10.312Z,85.61
2016-11-26T00:47:38.190Z,85.52
2016-11-26T00:48:05.840Z,85.71
2016-11-26T00:48:33.766Z,85.71
2016-11-26T00:49:01.899Z,85.52
2016-11-26T00:49:30.406Z,85.91
2016-11-26T00:49:57.970Z,85.33
2016-11-26T00:50:25.581Z,85.81
2016-11-26T00:50:53.248Z,85.23
2016-11-26T00:51:20.895Z,85.13
2016-11-26T00:51:48.859Z,85.61
2016-11-26T00:52:16.460Z,85.42
2016-11-26T00:52:44.075Z,85.61
2016-11-26T00:53:11.664Z,85.42
2016-11-26T00:53:39.549Z,85.42
2016-11-26T00:54:07.197Z,85.23
2016-11-26T00:54:35.105Z,85.13
2016-11-26T00:55:02.743Z,85.23
2016-11-26T00:55:30.953Z,85.33
2016-11-26T00:55:58.551Z,85.91
2016-11-26T00:56:26.149Z,85.61
2016-11-26T00:56:53.824Z,85.61
2016-11-26T00:57:21.427Z,85.61
2016-11-26T00:57:49.304Z,85.42
2016-11-26T00:58:16.865Z,85.42
2016-11-26T00:58:44.506Z,85.71
2016-11-26T00:59:12.098Z,85.61
2016-11-26T00:59:39.748Z,85.23
2016-11-26T01:00:07.386Z,85.81
2016-11-26T01:00:34.951Z,85.42
2016-11-26T01:01:02.555Z,85.23
2016-11-26T01:01:30.167Z,84.84
2016-11-26T01:01:57.881Z,85.23
2016-11-26T01:02:25.946Z,85.42
2016-11-26T01:02:53.524Z,84.55
2016-11-26T01:03:21.167Z,85.81
2016-11-26T01:03:48.765Z,85.42
2016-11-26T01:04:16.894Z,85.42
2016-11-26T01:04:44.772Z,85.61
2016-11-26T01:05:12.383Z,85.52
2016-11-26T01:05:39.977Z,85.61
2016-11-26T01:06:07.590Z,85.81
2016-11-26T01:06:35.263Z,86
2016-11-26T01:07:03.219Z,85.71
2016-11-26T01:07:31.331Z,85.91
2016-11-26T01:07:58.929Z,86.1
2016-11-26T01:08:26.556Z,85.86
2016-11-26T01:08:54.433Z,86.35
2016-11-26T01:09:22.362Z,86.25
2016-11-26T01:09:50.014Z,86.73
2016-11-26T01:10:17.910Z,86.73
2016-11-26T01:10:45.529Z,86.73
2016-11-26T01:11:13.148Z,86.25
2016-11-26T01:11:40.843Z,85.77
2016-11-26T01:12:09.365Z,86.15
2016-11-26T01:12:37.257Z,86.15
2016-11-26T01:13:04.828Z,86.29
2016-11-26T01:13:32.698Z,86.05
2016-11-26T01:14:00.372Z,86.05
2016-11-26T01:14:27.997Z,85.86
2016-11-26T01:14:55.637Z,85.86
2016-11-26T01:15:23.213Z,86.25
2016-11-26T01:15:51.086Z,85.81
2016-11-26T01:16:18.713Z,85.81
2016-11-26T01:16:46.373Z,85.81
2016-11-26T01:17:14.570Z,85.91
2016-11-26T01:17:42.175Z,86.1
2016-11-26T01:18:09.808Z,86.1
2016-11-26T01:18:37.438Z,86.25
2016-11-26T01:19:05.081Z,85.96
2016-11-26T01:19:32.702Z,85.86
2016-11-26T01:20:00.279Z,86.05
2016-11-26T01:20:28.133Z,86.15
2016-11-26T01:20:55.721Z,86.44
2016-11-26T01:21:23.347Z,86.05
2016-11-26T01:21:50.919Z,85.96
2016-11-26T01:22:18.518Z,85.86
2016-11-26T01:22:46.263Z,86.15
2016-11-26T01:23:13.863Z,86.25
2016-11-26T01:23:41.473Z,86.15
2016-11-26T01:24:09.064Z,86
2016-11-26T01:24:36.706Z,86.05
2016-11-26T01:25:04.947Z,86.15
2016-11-26T01:25:32.889Z,86.35
2016-11-26T01:26:00.801Z,86.05
2016-11-26T01:26:28.501Z,85.67
2016-11-26T01:26:56.266Z,85.86
2016-11-26T01:27:24.427Z,85.96
2016-11-26T01:27:51.972Z,86.1
2016-11-26T01:28:19.562Z,86.29
2016-11-26T01:28:47.512Z,86.15
2016-11-26T01:29:15.141Z,85.91
2016-11-26T01:29:42.687Z,85.91
2016-11-26T01:30:10.326Z,86
2016-11-26T01:30:37.944Z,85.61
2016-11-26T01:31:05.487Z,85.23
2016-11-26T01:31:33.302Z,85.23
2016-11-26T01:32:00.873Z,85.33
2016-11-26T01:32:28.806Z,85.33
2016-11-26T01:32:56.514Z,85.23
2016-11-26T01:33:24.179Z,86
2016-11-26T01:33:51.785Z,85.86
2016-11-26T01:34:19.717Z,85.42
2016-11-26T01:34:47.473Z,85.13
2016-11-26T01:35:15.076Z,85.42
2016-11-26T01:35:42.696Z,85.13
2016-11-26T01:36:10.309Z,85.33
2016-11-26T01:36:38.230Z,85.42
2016-11-26T01:37:06.194Z,85.42
2016-11-26T01:37:33.848Z,85.61
2016-11-26T01:38:01.737Z,85.81
2016-11-26T01:38:29.316Z,85.23
2016-11-26T01:38:56.875Z,85.03
2016-11-26T01:39:24.496Z,85.13
2016-11-26T01:39:52.706Z,84.75
2016-11-26T01:40:20.245Z,85.33
2016-11-26T01:40:47.817Z,85.42
2016-11-26T01:41:15.393Z,84.94
2016-11-26T01:41:43.019Z,84.75
2016-11-26T01:42:10.615Z,85.03
2016-11-26T01:42:38.457Z,85.03
2016-11-26T01:43:06.370Z,85.42
2016-11-26T01:43:33.991Z,85.13
2016-11-26T01:44:01.657Z,85.03
2016-11-26T01:44:29.329Z,84.84
2016-11-26T01:44:56.906Z,85.03
2016-11-26T01:45:24.512Z,84.46
2016-11-26T01:45:52.142Z,84.84
2016-11-26T01:46:19.752Z,84.46
2016-11-26T01:46:47.711Z,84.46
2016-11-26T01:47:15.365Z,84.36
2016-11-26T01:47:43.043Z,84.36
2016-11-26T01:48:10.629Z,84.27
2016-11-26T01:48:38.383Z,84.17
2016-11-26T01:49:06.355Z,84.36
2016-11-26T01:49:33.984Z,84.36
2016-11-26T01:50:01.942Z,84.36
2016-11-26T01:50:29.631Z,84.27
2016-11-26T01:50:57.282Z,83.98
2016-11-26T01:51:25.196Z,84.46
2016-11-26T01:51:52.749Z,84.65
2016-11-26T01:52:20.463Z,84.55
2016-11-26T01:52:48.242Z,84.55
2016-11-26T01:53:16.460Z,84.36
2016-11-26T01:53:44.394Z,84.46
2016-11-26T01:54:12.048Z,84.36
2016-11-26T01:54:40.026Z,84.75
2016-11-26T01:55:07.976Z,84.84
2016-11-26T01:55:35.548Z,85.13
2016-11-26T01:56:03.155Z,84.94
2016-11-26T01:56:31.141Z,85.71
2016-11-26T01:56:59.018Z,85.71
2016-11-26T01:57:26.933Z,85.42
2016-11-26T01:57:54.751Z,85.23
2016-11-26T01:58:22.631Z,85.33
2016-11-26T01:58:50.603Z,85.13
2016-11-26T01:59:18.206Z,85.23
2016-11-26T01:59:45.892Z,84.94
2016-11-26T02:00:13.506Z,85.42
2016-11-26T02:00:41.428Z,85.03
2016-11-26T02:01:09.081Z,85.03
2016-11-26T02:01:36.689Z,85.13
2016-11-26T02:02:04.540Z,85.13
2016-11-26T02:02:32.084Z,85.03
2016-11-26T02:02:59.975Z,85.13
2016-11-26T02:03:27.600Z,85.03
2016-11-26T02:03:55.166Z,85.23
2016-11-26T02:04:23.130Z,85.23
2016-11-26T02:04:51.046Z,84.84
2016-11-26T02:05:18.712Z,84.75
2016-11-26T02:05:46.351Z,85.81
2016-11-26T02:06:14.227Z,85.61
2016-11-26T02:06:42.163Z,85.61
2016-11-26T02:07:09.744Z,85.33
2016-11-26T02:07:37.347Z,85.91
2016-11-26T02:08:05.342Z,85.61
2016-11-26T02:08:32.996Z,85.23
2016-11-26T02:09:00.633Z,85.23
2016-11-26T02:09:28.258Z,85.13
2016-11-26T02:09:55.836Z,84.84
2016-11-26T02:10:23.428Z,85.81
2016-11-26T02:10:51.258Z,85.81
2016-11-26T02:11:18.853Z,85.42
2016-11-26T02:11:46.540Z,85.91
2016-11-26T02:12:14.582Z,85.33
2016-11-26T02:12:42.486Z,85.71
2016-11-26T02:13:10.247Z,84.65
2016-11-26T02:13:37.908Z,84.84
2016-11-26T02:14:05.543Z,85.23
2016-11-26T02:14:33.232Z,84.84
2016-11-26T02:15:00.821Z,85.33
2016-11-26T02:15:28.498Z,85.71
2016-11-26T02:15:56.384Z,85.52
2016-11-26T02:16:23.951Z,85.61
2016-11-26T02:16:51.594Z,85.71
2016-11-26T02:17:19.225Z,85.52
2016-11-26T02:17:46.867Z,85.23
2016-11-26T02:18:14.521Z,85.23
2016-11-26T02:18:42.109Z,85.61
2016-11-26T02:19:09.708Z,85.33
2016-11-26T02:19:37.316Z,86.1
2016-11-26T02:20:05.248Z,86
2016-11-26T02:20:32.919Z,85.96
2016-11-26T02:21:01.081Z,85.71
2016-11-26T02:21:28.744Z,85.91
2016-11-26T02:21:56.624Z,85.96
2016-11-26T02:22:24.584Z,85.81
2016-11-26T02:22:52.238Z,85.91
2016-11-26T02:23:20.146Z,85.91
2016-11-26T02:23:48.112Z,86
2016-11-26T02:24:15.987Z,85.81
2016-11-26T02:24:43.744Z,85.81
2016-11-26T02:25:11.264Z,86.15
2016-11-26T02:25:38.950Z,86.29
2016-11-26T02:26:07.153Z,86.73
2016-11-26T02:26:35.059Z,86.96
2016-11-26T02:27:03.051Z,86.73
2016-11-26T02:27:30.674Z,86.96
2016-11-26T02:27:58.535Z,86.25
2016-11-26T02:28:26.541Z,85.86
2016-11-26T02:28:54.144Z,85.96
2016-11-26T02:29:21.773Z,86.44
2016-11-26T02:29:49.335Z,85.96
2016-11-26T02:30:16.971Z,85.96
2016-11-26T02:30:44.875Z,86.25
2016-11-26T02:31:12.480Z,86.63
2016-11-26T02:31:40.404Z,86.73
2016-11-26T02:32:08.060Z,86.15
2016-11-26T02:32:36.036Z,86.82
2016-11-26T02:33:03.582Z,86.54
2016-11-26T02:33:31.429Z,86.92
2016-11-26T02:33:59.076Z,86.44
2016-11-26T02:34:27.091Z,85.86
2016-11-26T02:34:54.746Z,86.25
2016-11-26T02:35:22.648Z,85.67
2016-11-26T02:35:50.252Z,86.05
2016-11-26T02:36:18.120Z,86.82
2016-11-26T02:36:45.770Z,86.73
2016-11-26T02:37:13.389Z,87.02
2016-11-26T02:37:41.294Z,86.63
2016-11-26T02:38:08.837Z,86.25
2016-11-26T02:38:36.450Z,86.15
2016-11-26T02:39:04.268Z,86.35
2016-11-26T02:39:32.496Z,86.49
2016-11-26T02:40:00.382Z,86.98
2016-11-26T02:40:28.289Z,86.49
2016-11-26T02:40:55.873Z,86.88
2016-11-26T02:41:23.532Z,86.78
2016-11-26T02:41:52.327Z,86.73
2016-11-26T02:42:20.224Z,86.4
2016-11-26T02:42:47.790Z,86.21
2016-11-26T02:43:15.465Z,86.82
2016-11-26T02:43:43.439Z,86.49
2016-11-26T02:44:11.391Z,86.69
2016-11-26T02:44:38.982Z,86.69
2016-11-26T02:45:06.844Z,86.59
2016-11-26T02:45:34.467Z,86.88
2016-11-26T02:46:02.139Z,86.69
2016-11-26T02:46:29.733Z,87.36
2016-11-26T02:46:57.595Z,87.26
2016-11-26T02:47:25.758Z,86.88
2016-11-26T02:47:53.364Z,86.98
2016-11-26T02:48:20.954Z,86.49
2016-11-26T02:48:49.358Z,86.49
2016-11-26T02:49:16.983Z,86.78
2016-11-26T02:49:45.192Z,86.59
2016-11-26T02:50:12.801Z,86.4
2016-11-26T02:50:40.418Z,86.69
2016-11-26T02:51:08.308Z,86.21
2016-11-26T02:51:35.872Z,86.11
2016-11-26T02:52:03.541Z,86.11
2016-11-26T02:52:31.149Z,86.69
2016-11-26T02:52:59.102Z,86.49
2016-11-26T02:53:26.712Z,86.59
2016-11-26T02:53:54.277Z,86.69
2016-11-26T02:54:22.200Z,86.98
2016-11-26T02:54:50.411Z,86.98
2016-11-26T02:55:18.289Z,86.88
2016-11-26T02:55:46.255Z,87.07
2016-11-26T02:56:13.776Z,86.69
2016-11-26T02:56:41.637Z,87.26
2016-11-26T02:57:09.270Z,86.98
2016-11-26T02:57:37.431Z,87.46
2016-11-26T02:58:05.303Z,87.36
2016-11-26T02:58:33.236Z,87.07
2016-11-26T02:59:01.157Z,87.07
2016-11-26T02:59:29.018Z,87.07
2016-11-26T02:59:56.615Z,87.17
2016-11-26T03:00:24.241Z,87.07
2016-11-26T03:00:52.211Z,87.17
2016-11-26T03:01:19.866Z,87.36
2016-11-26T03:01:47.459Z,87.26
2016-11-26T03:02:15.295Z,87.55
2016-11-26T03:02:43.227Z,87.74
2016-11-26T03:03:10.821Z,87.36
2016-11-26T03:03:38.534Z,87.74
2016-11-26T03:04:06.437Z,87.55
2016-11-26T03:04:34.006Z,87.84
2016-11-26T03:05:01.688Z,87.46
2016-11-26T03:05:29.247Z,87.36
2016-11-26T03:05:56.825Z,87.55
2016-11-26T03:06:24.754Z,87.65
2016-11-26T03:06:52.695Z,87.46
2016-11-26T03:07:20.624Z,87.74
2016-11-26T03:07:48.248Z,87.65
2016-11-26T03:08:16.203Z,88.61
2016-11-26T03:08:43.997Z,88.42
2016-11-26T03:09:11.616Z,88.42
2016-11-26T03:09:39.505Z,88.67
2016-11-26T03:10:07.383Z,87.74
2016-11-26T03:10:35.011Z,88.57
2016-11-26T03:11:02.642Z,88.09
2016-11-26T03:11:30.541Z,88.9
2016-11-26T03:11:58.464Z,88.42
2016-11-26T03:12:26.349Z,87.9
2016-11-26T03:12:54.237Z,88.09
2016-11-26T03:13:21.810Z,88.71
2016-11-26T03:13:49.424Z,88.42
2016-11-26T03:14:17.081Z,88.67
2016-11-26T03:14:45.240Z,88.76
2016-11-26T03:15:13.397Z,88.57
2016-11-26T03:15:41.066Z,88.76
2016-11-26T03:16:08.947Z,88.18
2016-11-26T03:16:36.866Z,88.18
2016-11-26T03:17:04.705Z,88.47
2016-11-26T03:17:32.329Z,88.57
2016-11-26T03:17:59.955Z,88.76
2016-11-26T03:18:27.627Z,88.47
2016-11-26T03:18:55.254Z,88.95
2016-11-26T03:19:22.977Z,88.67
2016-11-26T03:19:50.926Z,88.57
2016-11-26T03:20:18.745Z,89.15
2016-11-26T03:20:46.302Z,89.15
2016-11-26T03:21:13.931Z,89.05
2016-11-26T03:21:41.526Z,89.05
2016-11-26T03:22:09.093Z,88.95
2016-11-26T03:22:36.739Z,88.85
2016-11-26T03:23:04.379Z,89.05
2016-11-26T03:23:32.287Z,89.15
2016-11-26T03:24:00.287Z,89.24
2016-11-26T03:24:27.844Z,89.63
2016-11-26T03:24:56.373Z,89.43
2016-11-26T03:25:24.827Z,89.34
2016-11-26T03:25:52.406Z,88.85
2016-11-26T03:26:19.974Z,89.34
2016-11-26T03:26:47.563Z,89.34
2016-11-26T03:27:15.792Z,89.72
2016-11-26T03:27:43.437Z,89.72
2016-11-26T03:28:11.367Z,89.63
2016-11-26T03:28:39.212Z,89.72
2016-11-26T03:29:07.407Z,89.82
2016-11-26T03:29:35.321Z,90.2
2016-11-26T03:30:02.963Z,90.11
2016-11-26T03:30:30.567Z,90.01
2016-11-26T03:30:58.484Z,90.2
2016-11-26T03:31:26.391Z,90.5
2016-11-26T03:31:54.285Z,90.2
2016-11-26T03:32:22.193Z,90.59
2016-11-26T03:32:49.770Z,90.11
2016-11-26T03:33:17.341Z,89.92
2016-11-26T03:33:45.301Z,90.2
2016-11-26T03:34:12.872Z,90.3
2016-11-26T03:34:40.803Z,90.11
2016-11-26T03:35:08.701Z,90.4
2016-11-26T03:35:36.651Z,91.07
2016-11-26T03:36:04.265Z,90.59
2016-11-26T03:36:31.867Z,90.88
2016-11-26T03:36:59.828Z,91.27
2016-11-26T03:37:27.701Z,91.27
2016-11-26T03:37:55.292Z,90.4
2016-11-26T03:38:23.226Z,90.59
2016-11-26T03:38:51.075Z,90.59
2016-11-26T03:39:19.024Z,90.11
2016-11-26T03:39:46.692Z,90.2
2016-11-26T03:40:14.190Z,90.2
2016-11-26T03:40:41.857Z,90.4
2016-11-26T03:41:09.736Z,91.17
2016-11-26T03:41:37.620Z,90.3
2016-11-26T03:42:05.537Z,90.5
2016-11-26T03:42:33.109Z,91.07
2016-11-26T03:43:00.705Z,90.88
2016-11-26T03:43:28.593Z,90.73
2016-11-26T03:43:56.790Z,91.27
2016-11-26T03:44:24.440Z,90.2
2016-11-26T03:44:52.035Z,90.59
2016-11-26T03:45:19.612Z,90.78
2016-11-26T03:45:47.509Z,90.78
2016-11-26T03:46:15.141Z,91.13
2016-11-26T03:46:42.727Z,90.97
2016-11-26T03:47:10.406Z,91.17
2016-11-26T03:47:37.974Z,90.64
2016-11-26T03:48:05.548Z,90.83
2016-11-26T03:48:33.124Z,91.36
2016-11-26T03:49:00.858Z,91.51
2016-11-26T03:49:28.489Z,91.31
2016-11-26T03:49:56.122Z,91.22
2016-11-26T03:50:23.768Z,91.27
2016-11-26T03:50:51.369Z,91.22
2016-11-26T03:51:19.342Z,91.65
2016-11-26T03:51:47.259Z,91.99
2016-11-26T03:52:15.143Z,91.6
2016-11-26T03:52:42.730Z,91.41
2016-11-26T03:53:10.312Z,91.55
2016-11-26T03:53:37.958Z,91.75
2016-11-26T03:54:05.937Z,91.65
2016-11-26T03:54:33.593Z,91.8
2016-11-26T03:55:01.513Z,91.7
2016-11-26T03:55:29.102Z,91.7
2016-11-26T03:55:57.038Z,91.55
2016-11-26T03:56:25.323Z,91.13
2016-11-26T03:56:52.931Z,91.84
2016-11-26T03:57:20.506Z,91.07
2016-11-26T03:57:48.130Z,91.8
2016-11-26T03:58:15.782Z,91.31
2016-11-26T03:58:43.679Z,91.31
2016-11-26T03:59:11.497Z,91.13
2016-11-26T03:59:39.467Z,91.31
2016-11-26T04:00:07.140Z,91.84
2016-11-26T04:00:34.772Z,91.51
2016-11-26T04:01:02.380Z,91.41
2016-11-26T04:01:29.983Z,91.7
2016-11-26T04:01:58.234Z,91.99
2016-11-26T04:02:26.157Z,91.8
2016-11-26T04:02:53.753Z,91.7
2016-11-26T04:03:21.283Z,91.6
2016-11-26T04:03:49.178Z,91.6
2016-11-26T04:04:17.129Z,91.6
2016-11-26T04:04:45.058Z,91.6
2016-11-26T04:05:12.696Z,91.99
2016-11-26T04:05:40.356Z,91.8
2016-11-26T04:06:07.928Z,91.99
2016-11-26T04:06:35.493Z,91.7
2016-11-26T04:07:03.026Z,91.7
2016-11-26T04:07:30.982Z,91.8
2016-11-26T04:07:58.598Z,91.7
2016-11-26T04:08:26.497Z,91.89
2016-11-26T04:08:54.402Z,91.6
2016-11-26T04:09:22.322Z,91.6
2016-11-26T04:09:50.479Z,91.7
2016-11-26T04:10:18.684Z,91.7
2016-11-26T04:10:46.912Z,91.6
2016-11-26T04:11:14.801Z,91.6
2016-11-26T04:11:42.410Z,91.41
2016-11-26T04:12:10.055Z,91.7
2016-11-26T04:12:37.939Z,91.7
2016-11-26T04:13:05.839Z,91.7
2016-11-26T04:13:33.518Z,91.8
2016-11-26T04:14:01.147Z,91.8
2016-11-26T04:14:28.868Z,91.6
2016-11-26T04:14:56.498Z,91.99
2016-11-26T04:15:24.647Z,91.7
2016-11-26T04:15:52.609Z,91.6
2016-11-26T04:16:20.226Z,92.18
2016-11-26T04:16:48.171Z,91.6
2016-11-26T04:17:15.818Z,91.7
2016-11-26T04:17:43.434Z,91.99
2016-11-26T04:18:11.362Z,92.08
2016-11-26T04:18:39.266Z,91.99
2016-11-26T04:19:07.495Z,91.51
2016-11-26T04:19:35.062Z,91.8
2016-11-26T04:20:02.924Z,91.8
2016-11-26T04:20:30.554Z,91.51
2016-11-26T04:20:58.850Z,92.08
2016-11-26T04:21:26.695Z,92.66
2016-11-26T04:21:54.230Z,91.94
2016-11-26T04:22:21.841Z,92.57
2016-11-26T04:22:50.095Z,92.71
2016-11-26T04:23:17.735Z,93.33
2016-11-26T04:23:45.726Z,92.33
2016-11-26T04:24:13.448Z,92.57
2016-11-26T04:24:41.059Z,92.38
2016-11-26T04:25:08.712Z,92.66
2016-11-26T04:25:36.931Z,92.76
2016-11-26T04:26:04.557Z,92.66
2016-11-26T04:26:32.172Z,93.62
2016-11-26T04:27:00.107Z,93.33
2016-11-26T04:27:27.723Z,93.29
2016-11-26T04:27:55.572Z,93.43
2016-11-26T04:28:23.538Z,93.1
2016-11-26T04:28:51.240Z,93.48
2016-11-26T04:29:18.893Z,93.82
2016-11-26T04:29:46.648Z,93.48
2016-11-26T04:30:14.289Z,93.1
2016-11-26T04:30:56.519Z,93.58
2016-11-26T04:31:24.805Z,94.15
2016-11-26T04:31:53.056Z,93.38
2016-11-26T04:32:20.991Z,93.48
2016-11-26T04:32:48.943Z,94.15
2016-11-26T04:33:16.797Z,94.06
2016-11-26T04:33:44.348Z,93.77
2016-11-26T04:34:12.340Z,93.48
2016-11-26T04:34:40.269Z,93.38
2016-11-26T04:35:08.187Z,93.58
2016-11-26T04:35:36.071Z,93.29
2016-11-26T04:36:03.970Z,93.48
2016-11-26T04:36:31.818Z,94.06
2016-11-26T04:36:59.713Z,94.15
2016-11-26T04:37:27.654Z,94.15
2016-11-26T04:37:55.344Z,93.87
2016-11-26T04:38:22.926Z,94.64
2016-11-26T04:38:50.530Z,94.06
2016-11-26T04:39:18.715Z,94.45
2016-11-26T04:39:46.334Z,94.06
2016-11-26T04:40:13.957Z,94.06
2016-11-26T04:40:42.105Z,94.45
2016-11-26T04:41:10.247Z,94.54
2016-11-26T04:41:38.137Z,94.73
2016-11-26T04:42:06.058Z,94.73
2016-11-26T04:42:33.636Z,94.45
2016-11-26T04:43:01.514Z,94.45
2016-11-26T04:43:29.144Z,93.96
2016-11-26T04:43:57.063Z,94.25
2016-11-26T04:44:24.716Z,94.73
2016-11-26T04:44:52.358Z,94.25
2016-11-26T04:45:19.965Z,93.96
2016-11-26T04:45:47.627Z,93.87
2016-11-26T04:46:15.263Z,94.35
2016-11-26T04:46:42.894Z,94.54
2016-11-26T04:47:10.548Z,94.15
2016-11-26T04:47:38.170Z,94.15
2016-11-26T04:48:05.777Z,94.25
2016-11-26T04:48:33.337Z,94.45
2016-11-26T04:49:00.979Z,94.15
2016-11-26T04:49:28.559Z,94.06
2016-11-26T04:49:56.186Z,94.25
2016-11-26T04:50:23.777Z,94.15
2016-11-26T04:50:51.454Z,93.96
2016-11-26T04:51:19.428Z,94.45
2016-11-26T04:51:47.031Z,93.87
2016-11-26T04:52:14.647Z,93.87
2016-11-26T04:52:42.358Z,94.54
2016-11-26T04:53:10.006Z,94.73
2016-11-26T04:53:37.695Z,94.54
2016-11-26T04:54:05.316Z,94.45
2016-11-26T04:54:33.152Z,94.35
2016-11-26T04:55:00.787Z,93.19
2016-11-26T04:55:28.484Z,94.15
2016-11-26T04:55:56.803Z,94.45
2016-11-26T04:56:24.454Z,94.15
2016-11-26T04:56:52.069Z,94.35
2016-11-26T04:57:19.721Z,94.15
2016-11-26T04:57:47.426Z,93.96
2016-11-26T04:58:15.078Z,94.54
2016-11-26T04:58:57.704Z,94.45
2016-11-26T04:59:25.640Z,94.15
2016-11-26T04:59:53.235Z,94.15
2016-11-26T05:00:35.549Z,94.06
2016-11-26T05:01:03.424Z,94.15
2016-11-26T05:01:31.385Z,94.45
2016-11-26T05:01:59.050Z,94.15
2016-11-26T05:02:26.689Z,94.49
2016-11-26T05:02:54.527Z,94.25
2016-11-26T05:03:22.112Z,93.87
2016-11-26T05:03:49.672Z,93.96
2016-11-26T05:04:17.337Z,93.87
2016-11-26T05:04:44.933Z,94.15
2016-11-26T05:05:12.574Z,94.15
2016-11-26T05:05:40.517Z,94.25
2016-11-26T05:06:08.706Z,94.1
2016-11-26T05:06:36.378Z,94.54
2016-11-26T05:07:04.241Z,95.31
2016-11-26T05:07:31.886Z,95.5
2016-11-26T05:07:59.774Z,94.92
2016-11-26T05:08:27.376Z,94.54
2016-11-26T05:08:55.861Z,94.06
2016-11-26T05:09:23.419Z,94.25
2016-11-26T05:09:51.055Z,94.15
2016-11-26T05:10:18.934Z,94.73
2016-11-26T05:10:46.775Z,94.54
2016-11-26T05:11:14.715Z,94.45
2016-11-26T05:11:42.350Z,94.54
2016-11-26T05:12:09.949Z,94.83
2016-11-26T05:12:38.406Z,95.12
2016-11-26T05:13:05.906Z,95.12
2016-11-26T05:13:33.788Z,94.92
2016-11-26T05:14:01.706Z,95.02
2016-11-26T05:14:29.473Z,95.12
2016-11-26T05:14:57.152Z,95.31
2016-11-26T05:15:24.866Z,95.21
2016-11-26T05:15:52.473Z,95.12
2016-11-26T05:16:20.445Z,95.12
2016-11-26T05:16:48.477Z,95.4
2016-11-26T05:17:16.085Z,95.6
2016-11-26T05:17:43.998Z,95.7
2016-11-26T05:18:11.504Z,95.4
2016-11-26T05:18:39.080Z,95.7
2016-11-26T05:19:07.272Z,96.08
2016-11-26T05:19:35.041Z,96.27
2016-11-26T05:20:02.960Z,95.89
2016-11-26T05:20:31.181Z,95.6
2016-11-26T05:20:59.104Z,95.79
2016-11-26T05:21:26.669Z,96.47
2016-11-26T05:21:54.523Z,95.6
2016-11-26T05:22:22.127Z,95.7
2016-11-26T05:22:50.014Z,95.12
2016-11-26T05:23:17.566Z,95.12
2016-11-26T05:23:45.893Z,95.21
2016-11-26T05:24:13.532Z,95.4
2016-11-26T05:24:41.742Z,95.12
2016-11-26T05:25:09.634Z,95.4
2016-11-26T05:25:37.571Z,95.12
2016-11-26T05:26:05.472Z,95.5
2016-11-26T05:26:33.398Z,95.12
2016-11-26T05:27:00.958Z,94.92
2016-11-26T05:27:28.596Z,95.4
2016-11-26T05:27:56.515Z,95.21
2016-11-26T05:28:24.130Z,95.4
2016-11-26T05:28:51.715Z,95.21
2016-11-26T05:29:19.940Z,95.31
2016-11-26T05:29:47.957Z,95.12
2016-11-26T05:30:15.598Z,95.31
2016-11-26T05:30:43.514Z,95.02
2016-11-26T05:31:11.152Z,95.5
2016-11-26T05:31:38.748Z,95.79
2016-11-26T05:32:06.611Z,95.31
2016-11-26T05:32:34.230Z,95.5
2016-11-26T05:33:01.846Z,95.31
2016-11-26T05:33:29.439Z,95.02
2016-11-26T05:33:57.721Z,95.26
2016-11-26T05:34:25.581Z,95.31
2016-11-26T05:34:53.723Z,94.98
2016-11-26T05:35:21.948Z,95.45
2016-11-26T05:35:49.799Z,95.26
2016-11-26T05:36:17.977Z,95.07
2016-11-26T05:36:45.581Z,95.45
2016-11-26T05:37:13.191Z,95.75
2016-11-26T05:37:40.801Z,95.5
2016-11-26T05:38:09.237Z,95.45
2016-11-26T05:38:37.113Z,95.07
2016-11-26T05:39:04.735Z,95.21
2016-11-26T05:39:32.352Z,95.21
2016-11-26T05:40:00.304Z,95.07
2016-11-26T05:40:27.923Z,95.07
2016-11-26T05:40:55.522Z,95.12
2016-11-26T05:41:23.430Z,94.98
2016-11-26T05:41:51.100Z,94.98
2016-11-26T05:42:18.961Z,94.88
2016-11-26T05:42:46.637Z,94.98
2016-11-26T05:43:14.878Z,95.07
2016-11-26T05:43:43.058Z,95.26
2016-11-26T05:44:10.928Z,95.12
2016-11-26T05:44:38.614Z,95.45
2016-11-26T05:45:06.193Z,95.07
2016-11-26T05:45:34.073Z,95.17
2016-11-26T05:46:01.941Z,94.98
2016-11-26T05:46:29.557Z,95.07
2016-11-26T05:46:57.459Z,95.36
2016-11-26T05:47:25.339Z,94.88
2016-11-26T05:47:52.994Z,95.17
2016-11-26T05:48:21.240Z,95.36
2016-11-26T05:48:48.860Z,95.17
2016-11-26T05:49:16.475Z,95.26
2016-11-26T05:49:44.493Z,95.45
2016-11-26T05:50:12.067Z,95.17
2016-11-26T05:50:39.614Z,94.98
2016-11-26T05:51:07.543Z,94.98
2016-11-26T05:51:35.236Z,95.26
2016-11-26T05:52:02.777Z,95.45
2016-11-26T05:52:30.518Z,95.65
2016-11-26T05:52:58.196Z,95.94
2016-11-26T05:53:25.856Z,95.75
2016-11-26T05:53:53.465Z,95.84
2016-11-26T05:54:21.319Z,95.17
2016-11-26T05:54:48.943Z,95.36
2016-11-26T05:55:16.597Z,96.03
2016-11-26T05:55:44.798Z,96.03
2016-11-26T05:56:12.370Z,96.42
2016-11-26T05:56:40.623Z,96.27
2016-11-26T05:57:08.234Z,95.6
2016-11-26T05:57:35.839Z,95.94
2016-11-26T05:58:03.498Z,95.94
2016-11-26T05:58:31.136Z,95.84
2016-11-26T05:58:58.790Z,96.22
2016-11-26T05:59:26.669Z,96.22
2016-11-26T05:59:54.557Z,96.32
2016-11-26T06:00:22.199Z,95.84